Time;durP1;ratioP1;P1;durP2;ratioP2;P2;SDS_P1;SDS_P2;PMS_P1;PMS_P2;Temp;Humidity;BMP_temperature;BMP_pressure;BME280_temperature;BME280_humidity;BME280_pressure;Samples;Min_cycle;Max_cycle;Signal;HPM_P1;HPM_P2
2022/09/16 00:01:23;;;;;;;4.90;4.50;;;15.60;99.90;;;;;;5070990;28;20177;-69
2022/09/16 00:03:54;;;;;;;4.50;4.10;;;16.10;99.90;;;;;;5051918;28;20229;-69
2022/09/16 00:06:22;;;;;;;5.63;4.97;;;15.80;99.90;;;;;;5072356;28;20291;-69
2022/09/16 00:08:48;;;;;;;4.72;4.35;;;15.90;99.90;;;;;;5053664;28;20177;-69
2022/09/16 00:11:15;;;;;;;6.45;4.63;;;15.70;99.90;;;;;;5070301;28;20263;-69
2022/09/16 00:13:41;;;;;;;8.60;4.60;;;15.90;99.90;;;;;;5048380;28;20181;-69
2022/09/16 00:16:10;;;;;;;4.73;4.33;;;15.90;99.90;;;;;;5070476;28;20189;-69
2022/09/16 00:18:36;;;;;;;5.90;5.30;;;16.10;99.90;;;;;;5063252;28;21317;-69
2022/09/16 00:21:07;;;;;;;5.23;4.80;;;16.00;99.90;;;;;;5075226;28;20296;-69
2022/09/16 00:23:32;;;;;;;6.03;4.30;;;15.90;99.90;;;;;;5067637;28;20431;-69
2022/09/16 00:25:58;;;;;;;5.00;4.60;;;16.10;99.90;;;;;;5052657;28;20223;-69
2022/09/16 00:28:24;;;;;;;4.90;4.50;;;16.00;99.90;;;;;;5071048;28;20239;-69
2022/09/16 00:30:50;;;;;;;4.70;4.30;;;16.40;99.90;;;;;;5062457;28;20294;-69
2022/09/16 00:33:17;;;;;;;5.30;4.90;;;16.10;99.90;;;;;;5045268;28;20809;-69
2022/09/16 00:35:43;;;;;;;6.78;4.88;;;16.10;99.90;;;;;;5070959;28;20457;-70
2022/09/16 00:38:08;;;;;;;4.90;4.50;;;15.90;99.90;;;;;;5051939;28;20192;-69
2022/09/16 00:40:42;;;;;;;5.10;4.70;;;16.20;99.90;;;;;;5069512;28;20547;-69
2022/09/16 00:43:11;;;;;;;5.10;4.70;;;15.80;99.90;;;;;;5071740;28;20208;-69
2022/09/16 00:45:37;;;;;;;5.63;5.07;;;15.70;99.90;;;;;;5067408;28;20221;-70
2022/09/16 00:48:06;;;;;;;6.10;5.50;;;15.60;99.90;;;;;;5061710;28;20524;-69
2022/09/16 00:50:53;;;;;;;5.70;5.20;;;15.60;99.90;;;;;;5067379;28;20622;-70
2022/09/16 00:53:26;;;;;;;5.95;5.45;;;15.60;99.90;;;;;;5065555;28;20208;-69
2022/09/16 00:55:55;;;;;;;7.35;5.30;;;15.40;99.90;;;;;;5059399;28;20201;-69
2022/09/16 00:58:29;;;;;;;5.65;4.82;;;15.40;99.90;;;;;;5063755;28;20186;-69
2022/09/16 01:00:55;;;;;;;6.15;5.28;;;15.40;99.90;;;;;;5050990;28;20263;-70
2022/09/16 01:03:22;;;;;;;6.33;5.73;;;15.40;99.90;;;;;;5070396;28;20308;-69
2022/09/16 01:05:49;;;;;;;5.50;5.10;;;15.20;99.90;;;;;;5059731;28;20209;-67
2022/09/16 01:08:14;;;;;;;6.13;5.05;;;15.10;99.90;;;;;;5073487;28;20652;-69
2022/09/16 01:10:42;;;;;;;6.50;5.87;;;15.10;99.90;;;;;;5068181;28;20184;-69
2022/09/16 01:13:11;;;;;;;5.13;4.72;;;15.30;99.90;;;;;;5070955;28;20214;-69
2022/09/16 01:15:54;;;;;;;5.35;4.88;;;15.10;99.90;;;;;;5050509;28;20213;-69
2022/09/16 01:18:53;;;;;;;6.80;5.10;;;15.20;99.90;;;;;;5066404;28;20189;-69
2022/09/16 01:21:32;;;;;;;5.85;5.35;;;15.40;99.90;;;;;;5064545;28;20547;-69
2022/09/16 01:24:24;;;;;;;5.13;4.68;;;15.10;99.90;;;;;;5070098;28;20657;-69
2022/09/16 01:26:56;;;;;;;5.60;5.20;;;15.20;99.90;;;;;;5068518;28;20212;-69
2022/09/16 01:30:16;;;;;;;6.95;5.60;;;15.40;99.90;;;;;;5047407;28;20272;-69
2022/09/16 01:33:23;;;;;;;5.28;4.78;;;15.30;99.90;;;;;;4985216;28;20195;-69
2022/09/16 01:36:06;;;;;;;4.90;4.50;;;15.30;99.90;;;;;;5008704;28;20305;-69
2022/09/16 01:38:53;;;;;;;6.13;5.15;;;15.50;99.90;;;;;;5007767;28;20265;-69
2022/09/16 01:41:43;;;;;;;5.90;5.40;;;15.30;99.90;;;;;;5047777;28;20572;-69
2022/09/16 01:44:18;;;;;;;5.53;4.90;;;15.60;99.90;;;;;;5069900;28;20212;-70
2022/09/16 01:46:57;;;;;;;5.38;4.93;;;15.40;99.90;;;;;;5068241;28;20211;-69
2022/09/16 01:49:38;;;;;;;6.22;5.13;;;15.30;99.90;;;;;;5065920;28;20185;-70
2022/09/16 01:52:03;;;;;;;7.55;5.72;;;15.30;99.90;;;;;;5071435;28;20576;-69
2022/09/16 01:54:38;;;;;;;5.60;5.10;;;15.40;99.90;;;;;;5058997;28;20259;-69
2022/09/16 01:57:16;;;;;;;5.70;5.20;;;15.20;99.90;;;;;;5065108;28;20193;-70
2022/09/16 01:59:49;;;;;;;5.70;5.20;;;15.40;99.90;;;;;;5053108;28;20186;-70
2022/09/16 02:02:28;;;;;;;6.10;5.35;;;15.10;99.90;;;;;;5050756;28;20212;-69
2022/09/16 02:04:56;;;;;;;6.13;4.60;;;15.20;99.90;;;;;;5055409;28;20292;-69
2022/09/16 02:07:31;;;;;;;5.55;4.65;;;15.20;99.90;;;;;;5070098;28;20205;-70
2022/09/16 02:10:09;;;;;;;5.95;4.43;;;15.50;99.90;;;;;;5047692;28;20191;-69
2022/09/16 02:12:41;;;;;;;4.82;4.35;;;15.60;99.90;;;;;;5052189;28;20645;-69
2022/09/16 02:15:11;;;;;;;4.70;4.30;;;15.20;99.90;;;;;;5065219;28;20193;-69
2022/09/16 02:17:43;;;;;;;4.80;4.07;;;15.40;99.90;;;;;;5067795;28;20546;-69
2022/09/16 02:20:13;;;;;;;4.47;3.65;;;15.20;99.90;;;;;;5062738;28;20270;-69
2022/09/16 02:23:02;;;;;;;4.22;3.80;;;15.40;99.90;;;;;;5069086;28;20545;-69
2022/09/16 02:25:32;;;;;;;4.40;3.92;;;15.50;99.90;;;;;;5062545;28;20216;-68
2022/09/16 02:28:01;;;;;;;4.28;3.88;;;15.30;99.90;;;;;;5068750;28;20174;-69
2022/09/16 02:30:26;;;;;;;3.45;2.92;;;15.80;99.90;;;;;;5071827;28;20191;-69
2022/09/16 02:32:59;;;;;;;3.57;3.27;;;15.80;99.90;;;;;;5057401;28;20181;-69
2022/09/16 02:35:27;;;;;;;5.82;3.60;;;16.00;99.90;;;;;;5067881;28;20741;-68
2022/09/16 02:38:08;;;;;;;4.00;3.40;;;15.90;99.90;;;;;;5068219;28;20242;-69
2022/09/16 02:40:40;;;;;;;6.78;3.95;;;15.40;99.90;;;;;;5061714;28;20416;-69
2022/09/16 02:43:06;;;;;;;6.43;4.15;;;15.40;99.90;;;;;;5068488;28;20182;-70
2022/09/16 02:45:46;;;;;;;5.43;3.93;;;15.10;99.90;;;;;;5067729;28;20213;-69
2022/09/16 02:48:19;;;;;;;4.63;4.22;;;15.40;99.90;;;;;;5068686;28;20183;-69
2022/09/16 02:50:57;;;;;;;6.78;3.90;;;15.30;99.90;;;;;;5072714;28;20184;-69
2022/09/16 02:53:37;;;;;;;3.72;3.42;;;15.50;99.90;;;;;;5065405;28;20173;-69
2022/09/16 02:56:13;;;;;;;4.00;3.60;;;15.40;99.90;;;;;;5060774;28;20185;-70
2022/09/16 02:58:39;;;;;;;4.15;3.45;;;15.60;99.90;;;;;;5072643;28;20203;-69
2022/09/16 03:01:05;;;;;;;3.63;3.33;;;15.40;99.90;;;;;;5072265;28;20185;-68
2022/09/16 03:03:31;;;;;;;5.53;3.95;;;15.20;99.90;;;;;;5069031;28;20920;-68
2022/09/16 03:06:23;;;;;;;7.23;3.07;;;15.30;99.90;;;;;;5072657;28;20236;-68
2022/09/16 03:08:51;;;;;;;3.88;2.95;;;15.50;99.90;;;;;;5075445;28;20185;-68
2022/09/16 03:11:35;;;;;;;5.78;3.60;;;15.40;99.90;;;;;;5075642;28;20549;-69
2022/09/16 03:14:29;;;;;;;3.55;2.95;;;15.60;99.90;;;;;;5070572;28;20201;-69
2022/09/16 03:17:07;;;;;;;3.72;3.30;;;15.40;99.90;;;;;;5072082;28;20189;-68
2022/09/16 03:19:54;;;;;;;3.50;3.20;;;15.20;99.90;;;;;;5070985;28;20194;-68
2022/09/16 03:23:06;;;;;;;3.75;3.45;;;15.40;99.90;;;;;;5070203;28;20242;-68
2022/09/16 03:26:00;;;;;;;3.15;2.85;;;15.30;99.90;;;;;;5058208;28;20239;-68
2022/09/16 03:28:42;;;;;;;4.80;3.80;;;15.40;99.90;;;;;;5068474;28;20185;-68
2022/09/16 03:31:17;;;;;;;9.52;3.75;;;15.20;99.90;;;;;;5061379;28;20186;-68
2022/09/16 03:33:56;;;;;;;5.57;5.03;;;15.10;99.90;;;;;;5065868;28;20181;-68
2022/09/16 03:36:27;;;;;;;4.10;3.70;;;15.10;99.90;;;;;;5072092;28;20724;-68
2022/09/16 03:38:54;;;;;;;6.22;3.65;;;15.10;99.90;;;;;;5071373;28;20188;-68
2022/09/16 03:41:20;;;;;;;3.72;3.42;;;15.30;99.90;;;;;;5070422;28;20212;-69
2022/09/16 03:43:57;;;;;;;6.85;4.07;;;15.00;99.90;;;;;;5072090;28;20250;-68
2022/09/16 03:46:24;;;;;;;4.35;3.65;;;15.20;99.90;;;;;;5048469;28;20208;-69
2022/09/16 03:48:49;;;;;;;6.88;3.75;;;15.00;99.90;;;;;;5067245;28;20666;-69
2022/09/16 03:51:15;;;;;;;4.97;4.10;;;15.40;99.90;;;;;;5061776;28;20234;-69
2022/09/16 03:53:40;;;;;;;4.90;4.00;;;15.20;99.90;;;;;;5070167;28;20260;-69
2022/09/16 03:56:06;;;;;;;6.30;4.20;;;15.20;99.90;;;;;;5066785;28;20200;-69
2022/09/16 03:58:32;;;;;;;4.33;3.93;;;15.30;99.90;;;;;;5071126;28;20667;-68
2022/09/16 04:00:57;;;;;;;7.27;4.30;;;15.20;99.90;;;;;;5070135;28;20438;-68
2022/09/16 04:03:23;;;;;;;3.70;3.40;;;15.10;99.90;;;;;;5064224;28;20189;-69
2022/09/16 04:05:55;;;;;;;5.20;3.67;;;15.30;99.90;;;;;;5053190;28;20220;-69
2022/09/16 04:08:22;;;;;;;5.05;3.92;;;15.20;99.90;;;;;;5056753;28;20185;-69
2022/09/16 04:11:01;;;;;;;9.95;7.80;;;15.20;99.90;;;;;;5049051;28;20185;-69
2022/09/16 04:13:32;;;;;;;3.83;3.42;;;15.00;99.90;;;;;;5053569;28;20652;-68
2022/09/16 04:15:59;;;;;;;4.63;4.18;;;14.90;99.90;;;;;;5053840;28;20181;-69
2022/09/16 04:18:25;;;;;;;3.95;3.63;;;14.90;99.90;;;;;;5069846;28;20185;-69
2022/09/16 04:20:56;;;;;;;4.75;3.70;;;15.10;99.90;;;;;;5064533;28;20196;-68
2022/09/16 04:23:24;;;;;;;4.85;3.83;;;14.80;99.90;;;;;;5072517;28;20195;-68
2022/09/16 04:25:56;;;;;;;3.70;3.40;;;14.80;99.90;;;;;;5070220;28;20248;-68
2022/09/16 04:28:22;;;;;;;6.40;4.20;;;14.70;99.90;;;;;;5051559;28;20181;-68
2022/09/16 04:30:48;;;;;;;7.87;3.50;;;14.70;99.90;;;;;;5071091;28;20191;-69
2022/09/16 04:33:13;;;;;;;4.70;3.77;;;14.80;99.90;;;;;;5061713;28;20182;-69
2022/09/16 04:35:39;;;;;;;6.47;4.27;;;14.90;99.90;;;;;;5064397;28;20208;-68
2022/09/16 04:38:05;;;;;;;3.93;3.40;;;14.80;99.90;;;;;;5067473;28;20264;-69
2022/09/16 04:40:30;;;;;;;6.90;3.80;;;14.90;99.90;;;;;;5071745;28;20386;-69
2022/09/16 04:42:56;;;;;;;5.47;4.47;;;15.00;99.90;;;;;;5052420;28;20241;-67
2022/09/16 04:45:21;;;;;;;4.00;3.57;;;14.70;99.90;;;;;;5071310;28;20685;-67
2022/09/16 04:47:47;;;;;;;4.87;3.67;;;14.70;99.90;;;;;;5069700;28;20271;-69
2022/09/16 04:50:13;;;;;;;4.77;4.27;;;15.20;99.90;;;;;;5051724;28;20697;-69
2022/09/16 04:52:38;;;;;;;3.90;3.50;;;14.50;99.90;;;;;;5047831;28;20189;-69
2022/09/16 04:55:04;;;;;;;4.60;4.20;;;14.90;99.90;;;;;;5068133;28;20199;-69
2022/09/16 04:57:31;;;;;;;7.70;4.22;;;14.90;99.90;;;;;;5076693;28;20188;-67
2022/09/16 04:59:57;;;;;;;3.80;3.45;;;14.80;99.90;;;;;;5069002;28;20684;-66
2022/09/16 05:02:23;;;;;;;7.65;3.95;;;14.80;99.90;;;;;;5063377;28;20591;-68
2022/09/16 05:04:48;;;;;;;6.53;4.47;;;14.90;99.90;;;;;;5038462;28;20212;-68
2022/09/16 05:07:14;;;;;;;6.07;4.30;;;14.80;99.90;;;;;;5051041;28;20209;-68
2022/09/16 05:09:40;;;;;;;4.80;4.10;;;14.80;99.90;;;;;;5067636;28;20213;-69
2022/09/16 05:12:06;;;;;;;4.37;4.07;;;14.90;99.90;;;;;;5063112;28;20242;-69
2022/09/16 05:14:31;;;;;;;6.97;4.28;;;15.10;99.90;;;;;;5046667;28;20205;-69
2022/09/16 05:16:57;;;;;;;8.20;6.57;;;15.00;99.90;;;;;;5063770;28;20294;-67
2022/09/16 05:19:22;;;;;;;4.07;3.60;;;15.00;99.90;;;;;;5059887;28;20187;-69
2022/09/16 05:21:48;;;;;;;7.30;4.43;;;14.90;99.90;;;;;;5059012;28;20189;-69
2022/09/16 05:24:14;;;;;;;83.30;48.57;;;14.90;99.90;;;;;;5068347;28;20578;-69
2022/09/16 05:26:41;;;;;;;11.63;7.33;;;15.00;99.90;;;;;;5067673;28;21496;-69
2022/09/16 05:29:10;;;;;;;7.35;6.25;;;15.10;99.90;;;;;;5063213;28;20197;-69
2022/09/16 05:31:38;;;;;;;36.97;25.48;;;15.30;99.90;;;;;;5066718;28;20629;-69
2022/09/16 05:34:12;;;;;;;6.55;5.28;;;15.00;99.90;;;;;;5063980;28;20221;-69
2022/09/16 05:36:38;;;;;;;6.80;5.10;;;14.90;99.90;;;;;;5067081;28;20185;-68
2022/09/16 05:39:05;;;;;;;8.10;5.20;;;14.90;99.90;;;;;;5065391;28;20189;-68
2022/09/16 05:41:31;;;;;;;6.20;5.60;;;15.10;99.90;;;;;;5056757;28;20236;-68
2022/09/16 05:44:00;;;;;;;6.33;5.00;;;14.80;99.90;;;;;;5074474;28;20312;-68
2022/09/16 05:46:27;;;;;;;5.40;4.90;;;14.70;99.90;;;;;;5064922;28;20213;-69
2022/09/16 05:48:53;;;;;;;5.57;5.07;;;14.80;99.90;;;;;;5055676;28;20177;-69
2022/09/16 05:51:21;;;;;;;5.43;5.03;;;14.80;99.90;;;;;;5064671;28;20180;-68
2022/09/16 05:53:48;;;;;;;6.32;5.00;;;14.60;99.90;;;;;;5046225;28;20185;-61
2022/09/16 05:56:18;;;;;;;6.65;4.88;;;14.60;99.90;;;;;;5058932;28;20181;-61
2022/09/16 05:58:45;;;;;;;7.68;5.50;;;14.90;99.90;;;;;;5053224;28;20239;-61
2022/09/16 06:01:10;;;;;;;5.45;4.78;;;14.90;99.90;;;;;;5043915;28;20188;-64
2022/09/16 06:03:38;;;;;;;5.90;4.80;;;14.80;99.90;;;;;;5064232;28;20185;-63
2022/09/16 06:06:12;;;;;;;5.97;4.85;;;14.90;99.90;;;;;;5062341;28;20216;-62
2022/09/16 06:08:38;;;;;;;6.30;5.30;;;15.00;99.90;;;;;;5050835;28;20184;-70
2022/09/16 06:11:07;;;;;;;6.18;5.60;;;15.00;99.90;;;;;;5051421;28;20608;-67
2022/09/16 06:13:33;;;;;;;6.32;5.28;;;14.90;99.90;;;;;;5061508;28;20203;-67
2022/09/16 06:16:00;;;;;;;5.93;5.32;;;15.00;99.90;;;;;;5065408;28;20323;-64
2022/09/16 06:18:28;;;;;;;5.40;4.90;;;14.90;99.90;;;;;;5066805;28;20183;-61
2022/09/16 06:20:54;;;;;;;6.80;5.90;;;15.10;99.90;;;;;;5065823;28;20631;-62
2022/09/16 06:23:21;;;;;;;6.78;4.65;;;14.90;99.90;;;;;;5059189;28;20185;-61
2022/09/16 06:25:47;;;;;;;8.95;5.40;;;14.70;99.90;;;;;;5064737;28;20221;-60
2022/09/16 06:28:13;;;;;;;5.17;4.70;;;15.10;99.90;;;;;;5068641;28;20284;-62
2022/09/16 06:30:38;;;;;;;7.73;5.57;;;14.90;99.90;;;;;;5048512;28;20197;-62
2022/09/16 06:33:05;;;;;;;7.27;5.40;;;15.10;99.90;;;;;;5072638;28;20876;-64
2022/09/16 06:35:33;;;;;;;6.40;5.35;;;15.10;99.90;;;;;;5054257;28;20728;-64
2022/09/16 06:37:58;;;;;;;9.05;5.68;;;15.10;99.90;;;;;;5070146;28;20273;-66
2022/09/16 06:40:24;;;;;;;7.27;5.80;;;14.70;99.90;;;;;;5068075;28;20264;-66
2022/09/16 06:42:53;;;;;;;8.00;5.77;;;15.10;99.90;;;;;;5074852;28;20180;-63
2022/09/16 06:45:19;;;;;;;7.28;6.57;;;14.80;99.90;;;;;;5071770;28;20234;-63
2022/09/16 06:47:45;;;;;;;11.50;6.35;;;14.80;99.90;;;;;;5066787;28;20209;-63
2022/09/16 06:50:11;;;;;;;6.77;5.43;;;14.80;99.90;;;;;;5076591;28;20249;-63
2022/09/16 06:52:37;;;;;;;5.93;4.87;;;14.70;99.90;;;;;;5070474;28;20291;-63
2022/09/16 06:55:03;;;;;;;8.30;5.73;;;14.80;99.90;;;;;;5056897;28;20192;-60
2022/09/16 06:57:30;;;;;;;10.25;5.32;;;14.90;99.90;;;;;;5069124;28;20272;-62
2022/09/16 06:59:55;;;;;;;7.13;5.15;;;15.20;99.90;;;;;;5057389;28;20193;-62
2022/09/16 07:03:28;;;;;;;8.85;5.25;;;15.00;99.90;;;;;;5052740;28;20576;-66
2022/09/16 07:06:00;;;;;;;8.00;4.50;;;15.10;99.90;;;;;;5037803;28;20194;-71
2022/09/16 07:08:31;;;;;;;6.28;4.47;;;14.80;99.90;;;;;;5038970;28;20186;-70
2022/09/16 07:11:00;;;;;;;7.00;5.10;;;15.10;99.90;;;;;;5032553;28;20698;-71
2022/09/16 07:13:26;;;;;;;8.43;5.72;;;14.70;99.90;;;;;;5033366;28;20709;-63
2022/09/16 07:15:53;;;;;;;5.25;4.85;;;15.00;99.90;;;;;;5033979;28;20216;-63
2022/09/16 07:18:19;;;;;;;5.72;5.30;;;14.90;99.90;;;;;;5037934;28;20519;-63
2022/09/16 07:20:44;;;;;;;6.32;5.70;;;14.60;99.90;;;;;;5034262;28;20983;-64
2022/09/16 07:23:17;;;;;;;9.20;6.30;;;14.70;99.90;;;;;;5043276;28;20702;-66
2022/09/16 07:25:44;;;;;;;6.90;5.50;;;14.70;99.90;;;;;;5038673;28;20208;-64
2022/09/16 07:28:09;;;;;;;6.00;5.50;;;14.70;99.90;;;;;;5036385;28;20261;-64
2022/09/16 07:30:35;;;;;;;9.27;5.63;;;14.60;99.90;;;;;;5032517;28;20190;-64
2022/09/16 07:33:01;;;;;;;6.93;5.43;;;14.40;99.90;;;;;;5027314;28;20182;-64
2022/09/16 07:35:26;;;;;;;7.23;5.20;;;14.70;99.90;;;;;;5028917;28;20210;-63
2022/09/16 07:37:52;;;;;;;6.60;5.20;;;14.30;99.90;;;;;;5039627;28;20276;-64
2022/09/16 07:40:17;;;;;;;6.30;4.97;;;14.30;99.90;;;;;;5030225;28;20194;-67
2022/09/16 07:42:43;;;;;;;6.97;4.67;;;14.80;99.90;;;;;;5037418;28;20218;-66
2022/09/16 07:45:09;;;;;;;6.03;5.53;;;14.40;99.90;;;;;;5039583;28;20292;-63
2022/09/16 07:47:36;;;;;;;9.30;5.77;;;14.30;99.90;;;;;;5036570;28;20213;-62
2022/09/16 07:50:01;;;;;;;9.63;5.30;;;14.50;99.90;;;;;;5042172;28;20524;-61
2022/09/16 07:52:28;;;;;;;6.27;5.67;;;14.50;99.90;;;;;;5033350;28;20322;-65
2022/09/16 07:54:55;;;;;;;9.70;5.88;;;14.30;99.90;;;;;;5028100;28;20733;-64
2022/09/16 07:57:21;;;;;;;8.48;6.05;;;14.50;99.90;;;;;;5034150;28;20208;-64
2022/09/16 07:59:47;;;;;;;7.30;5.30;;;14.40;99.90;;;;;;5027645;28;20197;-63
2022/09/16 08:02:13;;;;;;;5.53;5.03;;;14.50;99.90;;;;;;5027716;28;20601;-63
2022/09/16 08:04:39;;;;;;;9.43;5.40;;;14.70;99.90;;;;;;5035339;28;20289;-69
2022/09/16 08:07:05;;;;;;;8.30;6.00;;;14.60;99.90;;;;;;5042857;28;20440;-64
2022/09/16 08:09:32;;;;;;;7.00;5.60;;;14.40;99.90;;;;;;5034808;28;20545;-63
2022/09/16 08:11:58;;;;;;;6.13;5.47;;;14.40;99.90;;;;;;5043925;28;20232;-63
2022/09/16 08:14:24;;;;;;;8.75;5.78;;;14.60;99.90;;;;;;5029451;28;20206;-65
2022/09/16 08:16:50;;;;;;;7.17;6.50;;;14.40;99.90;;;;;;5026244;28;20681;-62
2022/09/16 08:19:16;;;;;;;8.65;7.38;;;14.30;99.90;;;;;;5020011;28;20527;-61
2022/09/16 08:21:42;;;;;;;9.93;8.85;;;14.30;99.90;;;;;;5017026;28;20647;-64
2022/09/16 08:24:09;;;;;;;11.57;6.80;;;14.50;99.90;;;;;;5028145;28;20293;-64
2022/09/16 08:26:34;;;;;;;8.15;7.35;;;14.40;99.90;;;;;;5025738;28;20217;-64
2022/09/16 08:29:00;;;;;;;10.57;6.57;;;14.40;99.90;;;;;;5013867;28;20250;-65
2022/09/16 08:31:26;;;;;;;7.20;6.50;;;14.50;99.90;;;;;;5014037;28;20441;-69
2022/09/16 08:33:52;;;;;;;6.67;6.17;;;14.50;99.90;;;;;;5030748;28;20465;-66
2022/09/16 08:36:23;;;;;;;7.65;6.95;;;14.60;99.90;;;;;;5028333;28;20436;-65
2022/09/16 08:38:52;;;;;;;7.13;6.50;;;14.70;99.90;;;;;;5021904;28;20657;-64
2022/09/16 08:41:29;;;;;;;7.85;7.13;;;14.80;99.90;;;;;;5026862;28;20194;-66
2022/09/16 08:44:06;;;;;;;7.10;6.25;;;14.90;99.90;;;;;;5023259;28;20198;-64
2022/09/16 08:46:53;;;;;;;16.08;13.85;;;14.90;99.90;;;;;;5024009;28;20186;-75
2022/09/16 08:49:36;;;;;;;7.93;7.13;;;15.00;99.90;;;;;;5024782;28;20232;-79
2022/09/16 08:52:13;;;;;;;9.93;7.32;;;15.00;99.90;;;;;;5028017;28;20185;-70
2022/09/16 08:54:51;;;;;;;7.20;6.40;;;15.00;99.90;;;;;;5020903;28;20560;-66
2022/09/16 08:57:21;;;;;;;8.48;6.55;;;14.90;99.90;;;;;;5023801;28;20187;-65
2022/09/16 08:59:53;;;;;;;7.03;6.28;;;14.80;99.90;;;;;;5028391;28;20208;-69
2022/09/16 09:02:42;;;;;;;6.43;5.85;;;14.90;99.90;;;;;;5026342;28;20690;-63
2022/09/16 09:05:17;;;;;;;7.70;6.95;;;14.70;99.90;;;;;;5027171;28;20524;-64
2022/09/16 09:07:53;;;;;;;6.50;5.90;;;15.00;99.90;;;;;;5016569;28;20198;-62
2022/09/16 09:10:28;;;;;;;9.18;7.78;;;15.20;99.90;;;;;;5029932;28;20199;-62
2022/09/16 09:13:03;;;;;;;7.30;6.35;;;15.10;99.90;;;;;;5016443;28;20225;-63
2022/09/16 09:15:51;;;;;;;5.10;4.70;;;15.00;99.90;;;;;;5027446;28;20275;-63
2022/09/16 09:18:39;;;;;;;5.28;4.80;;;15.30;99.90;;;;;;5030964;28;20671;-65
2022/09/16 09:21:14;;;;;;;5.57;4.53;;;15.60;99.90;;;;;;5017693;28;20237;-64
2022/09/16 09:24:24;;;;;;;4.85;4.45;;;15.50;99.90;;;;;;5024051;28;20178;-63
2022/09/16 09:26:53;;;;;;;5.18;4.70;;;15.60;99.90;;;;;;5015377;28;20201;-64
2022/09/16 09:29:32;;;;;;;4.88;4.47;;;15.80;99.90;;;;;;5024606;28;20182;-66
2022/09/16 09:32:19;;;;;;;4.93;4.53;;;15.60;99.90;;;;;;5034839;28;20217;-63
2022/09/16 09:35:23;;;;;;;6.13;5.10;;;15.60;99.90;;;;;;5019097;28;20208;-64
2022/09/16 09:37:58;;;;;;;4.82;4.38;;;15.60;99.90;;;;;;5015300;28;20233;-63
2022/09/16 09:40:51;;;;;;;3.95;3.67;;;15.60;99.90;;;;;;5019636;28;20202;-62
2022/09/16 09:43:47;;;;;;;3.95;3.65;;;15.60;99.90;;;;;;5017202;28;20217;-66
2022/09/16 09:46:22;;;;;;;5.65;4.60;;;15.70;99.90;;;;;;5018921;28;20197;-65
2022/09/16 09:49:12;;;;;;;5.32;4.82;;;15.60;99.90;;;;;;5017204;28;20197;-62
2022/09/16 09:51:50;;;;;;;6.18;5.45;;;15.60;99.90;;;;;;5017101;28;20269;-66
2022/09/16 09:54:25;;;;;;;4.90;4.55;;;15.80;99.90;;;;;;5019997;28;20202;-68
2022/09/16 09:57:00;;;;;;;4.45;3.85;;;16.40;99.90;;;;;;5020160;28;20233;-64
2022/09/16 09:59:26;;;;;;;5.85;4.55;;;16.10;99.90;;;;;;5022209;28;20193;-65
2022/09/16 10:02:00;;;;;;;6.43;4.30;;;16.20;99.90;;;;;;5025699;28;20217;-63
2022/09/16 10:04:29;;;;;;;5.63;4.63;;;16.10;99.90;;;;;;5016831;28;20682;-64
2022/09/16 10:06:56;;;;;;;4.75;4.30;;;16.00;99.90;;;;;;5020470;28;20325;-64
2022/09/16 10:09:23;;;;;;;8.07;4.90;;;15.40;99.90;;;;;;5015372;28;20183;-64
2022/09/16 10:11:54;;;;;;;5.65;4.10;;;15.90;99.90;;;;;;5019395;28;20241;-66
2022/09/16 10:14:30;;;;;;;8.80;7.40;;;15.90;99.90;;;;;;5016814;28;20228;-68
2022/09/16 10:16:59;;;;;;;7.25;6.40;;;15.60;99.90;;;;;;5025144;28;20189;-68
2022/09/16 10:19:27;;;;;;;5.47;5.00;;;15.80;99.90;;;;;;5018566;28;20603;-66
2022/09/16 10:21:55;;;;;;;5.22;4.80;;;15.60;99.90;;;;;;5016078;28;20579;-63
2022/09/16 10:24:32;;;;;;;5.78;5.28;;;16.00;99.90;;;;;;5014792;28;20285;-62
2022/09/16 10:27:00;;;;;;;17.63;15.73;;;16.00;99.90;;;;;;5013330;28;20195;-63
2022/09/16 10:29:26;;;;;;;6.18;4.90;;;15.80;99.90;;;;;;5013707;28;20179;-64
2022/09/16 10:31:52;;;;;;;5.30;4.90;;;15.80;99.90;;;;;;5027628;28;20676;-64
2022/09/16 10:34:25;;;;;;;5.35;4.85;;;16.10;99.90;;;;;;5028433;28;20822;-64
2022/09/16 10:37:10;;;;;;;5.45;5.05;;;16.10;99.90;;;;;;5028038;28;21040;-63
2022/09/16 10:39:42;;;;;;;4.60;4.03;;;16.20;99.90;;;;;;5027227;28;20265;-61
2022/09/16 10:42:24;;;;;;;7.20;5.40;;;15.80;99.90;;;;;;5018346;28;20224;-63
2022/09/16 10:45:01;;;;;;;5.13;4.70;;;15.90;99.90;;;;;;5016594;28;20195;-63
2022/09/16 10:47:30;;;;;;;4.70;4.30;;;15.90;99.90;;;;;;5025451;28;20185;-62
2022/09/16 10:50:03;;;;;;;4.32;3.92;;;16.00;99.90;;;;;;5035411;28;20177;-62
2022/09/16 10:52:48;;;;;;;4.75;4.35;;;16.00;99.90;;;;;;5027333;28;20500;-60
2022/09/16 10:55:35;;;;;;;3.72;3.42;;;16.20;99.90;;;;;;5027213;28;20211;-60
2022/09/16 10:58:17;;;;;;;3.95;3.72;;;16.00;99.90;;;;;;5011055;28;20253;-69
2022/09/16 11:01:08;;;;;;;5.38;4.82;;;16.10;99.90;;;;;;5015322;28;20839;-61
2022/09/16 11:04:00;;;;;;;4.80;4.40;;;16.00;99.90;;;;;;5022427;28;20246;-61
2022/09/16 11:06:32;;;;;;;4.60;4.20;;;15.90;99.90;;;;;;5017677;28;20266;-62
2022/09/16 11:09:26;;;;;;;4.40;4.00;;;16.20;99.90;;;;;;5017233;28;20189;-65
2022/09/16 11:12:16;;;;;;;5.18;4.68;;;16.10;99.90;;;;;;5026972;28;20250;-64
2022/09/16 11:15:05;;;;;;;5.95;4.22;;;16.20;99.90;;;;;;5027423;28;20691;-65
2022/09/16 11:17:36;;;;;;;6.00;5.40;;;16.40;99.90;;;;;;5020231;28;20277;-65
2022/09/16 11:20:31;;;;;;;3.05;2.85;;;15.90;99.90;;;;;;5012009;28;20636;-63
2022/09/16 11:23:35;;;;;;;5.70;4.03;;;16.30;99.90;;;;;;5026944;28;20202;-64
2022/09/16 11:26:18;;;;;;;4.22;3.50;;;16.30;99.90;;;;;;5035166;28;20256;-63
2022/09/16 11:29:12;;;;;;;4.57;4.03;;;16.40;99.90;;;;;;5016704;28;20665;-64
2022/09/16 11:31:52;;;;;;;4.25;3.85;;;16.20;99.90;;;;;;5015460;28;20538;-65
2022/09/16 11:34:34;;;;;;;9.77;3.80;;;16.10;99.90;;;;;;5025246;28;20708;-62
2022/09/16 11:37:19;;;;;;;5.05;3.90;;;16.20;99.90;;;;;;5012314;28;20194;-61
2022/09/16 11:40:13;;;;;;;3.83;3.22;;;16.10;99.90;;;;;;5014601;28;20273;-60
2022/09/16 11:42:44;;;;;;;3.53;3.22;;;15.90;99.90;;;;;;5019022;28;20206;-63
2022/09/16 11:45:15;;;;;;;3.80;3.40;;;16.20;99.90;;;;;;5016883;28;20234;-63
2022/09/16 11:48:21;;;;;;;3.80;3.38;;;16.30;99.90;;;;;;5025179;28;20270;-63
2022/09/16 11:50:59;;;;;;;5.22;3.25;;;16.20;99.90;;;;;;5014304;28;20194;-63
2022/09/16 11:54:19;;;;;;;3.38;2.88;;;16.20;99.90;;;;;;5027183;28;20723;-63
2022/09/16 11:56:52;;;;;;;3.50;3.10;;;16.50;99.90;;;;;;5007883;28;20659;-63
2022/09/16 11:59:29;;;;;;;2.80;2.60;;;16.70;99.90;;;;;;5021688;28;20252;-73
2022/09/16 12:02:22;;;;;;;4.50;2.78;;;16.70;99.90;;;;;;5016776;28;20282;-62
2022/09/16 12:04:55;;;;;;;3.33;3.00;;;16.90;99.90;;;;;;5018800;28;20206;-60
2022/09/16 12:07:28;;;;;;;2.80;2.55;;;17.10;99.90;;;;;;5031048;28;20302;-61
2022/09/16 12:10:05;;;;;;;2.40;2.20;;;17.30;99.90;;;;;;5029338;28;20771;-59
2022/09/16 12:12:47;;;;;;;5.15;2.40;;;17.50;99.90;;;;;;5025917;28;20186;-61
2022/09/16 12:15:18;;;;;;;6.35;2.75;;;17.30;99.70;;;;;;5020531;28;20217;-63
2022/09/16 12:17:56;;;;;;;6.22;3.03;;;17.70;99.70;;;;;;5020923;28;20193;-63
2022/09/16 12:20:30;;;;;;;3.38;2.10;;;17.90;99.90;;;;;;5015739;28;20200;-62
2022/09/16 12:23:27;;;;;;;3.05;2.10;;;17.90;99.10;;;;;;5017302;28;20620;-61
2022/09/16 12:25:55;;;;;;;2.65;2.17;;;17.50;97.70;;;;;;5027589;28;20548;-63
2022/09/16 12:28:45;;;;;;;2.25;2.10;;;17.70;97.20;;;;;;5022788;28;20195;-69
2022/09/16 12:31:23;;;;;;;3.20;2.40;;;18.10;97.40;;;;;;5026031;28;20193;-65
2022/09/16 12:33:54;;;;;;;2.72;2.45;;;17.70;97.20;;;;;;5018587;28;20178;-64
2022/09/16 12:36:28;;;;;;;2.35;2.15;;;17.80;97.30;;;;;;5026084;28;20186;-64
2022/09/16 12:38:56;;;;;;;5.00;2.85;;;17.80;97.00;;;;;;5030206;28;20730;-62
2022/09/16 12:41:30;;;;;;;6.50;2.03;;;17.80;98.10;;;;;;5025154;28;20288;-62
2022/09/16 12:44:26;;;;;;;3.95;2.60;;;17.90;97.10;;;;;;5021780;28;20206;-62
2022/09/16 12:47:10;;;;;;;3.83;3.45;;;17.70;97.50;;;;;;5025118;28;20186;-65
2022/09/16 12:50:14;;;;;;;3.25;2.25;;;17.80;98.20;;;;;;5023140;28;20301;-66
2022/09/16 12:52:49;;;;;;;3.45;3.15;;;18.00;97.10;;;;;;5022630;28;20189;-61
2022/09/16 12:55:23;;;;;;;2.80;2.50;;;17.60;96.50;;;;;;5025365;28;20280;-61
2022/09/16 12:58:21;;;;;;;3.15;2.20;;;17.70;96.50;;;;;;5018729;28;20675;-61
2022/09/16 13:01:01;;;;;;;2.65;2.20;;;17.70;97.80;;;;;;5041035;28;20189;-61
2022/09/16 13:03:30;;;;;;;4.32;2.42;;;17.70;96.60;;;;;;5027858;28;21092;-61
2022/09/16 13:05:58;;;;;;;2.72;2.53;;;17.70;96.00;;;;;;5022431;28;20187;-62
2022/09/16 13:08:30;;;;;;;3.92;2.00;;;17.60;96.30;;;;;;5023793;28;20326;-62
2022/09/16 13:11:02;;;;;;;3.40;2.50;;;17.80;96.50;;;;;;5024440;28;20646;-62
2022/09/16 13:13:44;;;;;;;4.35;2.63;;;17.60;96.50;;;;;;5020025;28;20214;-59
2022/09/16 13:16:10;;;;;;;3.40;3.10;;;17.70;96.40;;;;;;5026274;28;20217;-61
2022/09/16 13:18:45;;;;;;;4.00;2.50;;;18.20;96.60;;;;;;5022357;28;20218;-61